.
WxDataArchive / Data Records for 2006-02-12
2006-02-11 February 2006 2006-02-13

Data Records for Sunday, 12 February 2006

Time	Temp	Chill	HIndex	Humid	Dewpt	 Wind 	HiWind	WindDir	Rain 	Barom 
-----	----	-----	------	-----	-----	------	------	-------	-----	----- 
00:00	25.8	25.8	25.8	87	22.5	0	1	68	0.00	29.961 
00:05	25.8	25.8	25.8	87	22.5	0	1	68	0.00	29.961 
00:10	25.8	25.8	25.8	87	22.5	0	1	68	0.00	29.961 
00:15	25.8	25.8	25.8	87	22.5	0	2	68	0.00	29.957 
00:20	25.8	25.8	25.8	87	22.5	0	1	68	0.00	29.957 
00:25	25.7	25.7	25.7	87	22.4	0	2	68	0.00	29.957 
00:30	25.7	25.7	25.7	87	22.4	0	1	68	0.00	29.954 
00:35	25.7	25.7	25.7	87	22.4	0	1	68	0.00	29.954 
00:40	25.7	25.7	25.7	87	22.4	0	1	68	0.00	29.954 
00:45	25.7	25.7	25.7	87	22.4	0	1	45	0.00	29.952 
00:50	25.7	25.7	25.7	87	22.4	0	1	45	0.00	29.952 
00:55	25.7	25.7	25.7	88	22.6	0	1	45	0.00	29.952 
01:00	25.7	25.7	25.7	88	22.6	0	0	---	0.00	29.950 
01:05	25.8	25.8	25.8	88	22.7	0	1	45	0.00	29.950 
01:10	25.8	25.8	25.8	88	22.7	0	0	---	0.00	29.950 
01:15	25.8	25.8	25.8	88	22.7	0	1	45	0.00	29.947 
01:20	25.8	25.8	25.8	88	22.7	0	2	0	0.00	29.947 
01:25	25.8	25.8	25.8	88	22.7	0	2	0	0.00	29.947 
01:30	25.8	25.8	25.8	87	22.5	0	1	0	0.00	29.943 
01:35	25.8	25.8	25.8	87	22.5	0	2	0	0.00	29.943 
01:40	25.8	25.8	25.8	87	22.5	0	1	0	0.00	29.943 
01:45	25.8	25.8	25.8	87	22.5	0	1	0	0.00	29.939 
01:50	25.8	25.8	25.8	87	22.5	0	1	0	0.00	29.939 
01:55	25.7	25.7	25.7	86	22.1	0	1	0	0.00	29.939 
02:00	25.7	25.7	25.7	86	22.1	0	1	0	0.00	29.938 
02:05	25.7	25.7	25.7	86	22.1	0	0	---	0.00	29.938 
02:10	25.6	25.6	25.6	86	22.0	0	1	0	0.00	29.938 
02:15	25.4	25.4	25.4	86	21.8	0	1	0	0.00	29.937 
02:20	25.3	25.3	25.3	86	21.7	0	1	0	0.00	29.937 
02:25	25.1	25.1	25.1	86	21.5	0	0	---	0.00	29.937 
02:30	24.8	24.8	24.8	87	21.5	0	1	0	0.00	29.937 
02:35	24.7	24.7	24.7	87	21.4	0	1	0	0.00	29.937 
02:40	24.5	24.5	24.5	87	21.2	0	1	0	0.00	29.937 
02:45	24.2	24.2	24.2	87	20.9	0	1	0	0.00	29.938 
02:50	24.1	24.1	24.1	87	20.8	0	1	0	0.00	29.938 
02:55	23.8	23.8	23.8	87	20.5	0	0	---	0.00	29.938 
03:00	23.6	23.6	23.6	87	20.3	0	1	0	0.00	29.938 
03:05	23.5	23.5	23.5	87	20.2	0	1	0	0.00	29.938 
03:10	23.3	23.3	23.3	87	20.0	0	1	0	0.00	29.938 
03:15	23.2	23.2	23.2	87	19.9	0	0	---	0.00	29.935 
03:20	23.0	23.0	23.0	87	19.7	0	0	---	0.00	29.935 
03:25	22.7	22.7	22.7	87	19.4	0	0	---	0.00	29.935 
03:30	22.5	22.5	22.5	88	19.5	0	0	---	0.00	29.932 
03:35	22.2	22.2	22.2	88	19.2	0	0	---	0.00	29.932 
03:40	22.1	22.1	22.1	88	19.1	0	0	---	0.00	29.932 
03:45	21.9	21.9	21.9	88	18.9	0	0	---	0.00	29.932 
03:50	21.8	21.8	21.8	88	18.8	0	0	---	0.00	29.932 
03:55	21.6	21.6	21.6	88	18.6	0	0	---	0.00	29.932 
04:00	21.4	21.4	21.4	89	18.7	0	0	---	0.00	29.931 
04:05	21.3	21.3	21.3	89	18.6	0	0	---	0.00	29.931 
04:10	21.1	21.1	21.1	89	18.4	0	0	---	0.00	29.931 
04:15	21.1	21.1	21.1	89	18.4	0	0	---	0.00	29.930 
04:20	21.0	21.0	21.0	89	18.3	0	0	---	0.00	29.930 
04:25	21.0	21.0	21.0	89	18.3	0	1	0	0.00	29.930 
04:30	21.1	21.1	21.1	90	18.6	0	1	0	0.00	29.929 
04:35	21.1	21.1	21.1	90	18.6	0	1	0	0.00	29.929 
04:40	21.1	21.1	21.1	90	18.6	0	0	---	0.00	29.929 
04:45	21.1	21.1	21.1	89	18.4	0	0	---	0.00	29.927 
04:50	21.1	21.1	21.1	89	18.4	0	0	---	0.00	29.927 
04:55	21.1	21.1	21.1	89	18.4	0	0	---	0.00	29.927 
05:00	21.0	21.0	21.0	89	18.3	0	0	---	0.00	29.927 
05:05	20.8	20.8	20.8	89	18.1	0	0	---	0.00	29.927 
05:10	20.5	20.5	20.5	88	17.5	0	0	---	0.00	29.927 
05:15	20.2	20.2	20.2	88	17.2	0	0	---	0.00	29.931 
05:20	20.0	20.0	20.0	88	17.0	0	0	---	0.00	29.931 
05:25	19.9	19.9	19.9	88	16.9	0	0	---	0.00	29.931 
05:30	19.7	19.7	19.7	89	17.0	0	0	---	0.00	29.933 
05:35	19.5	19.5	19.5	89	16.8	0	0	---	0.00	29.933 
05:40	19.4	19.4	19.4	89	16.7	0	1	0	0.00	29.933 
05:45	19.4	19.4	19.4	89	16.7	0	0	---	0.00	29.935 
05:50	19.2	19.2	19.2	89	16.5	0	0	---	0.00	29.935 
05:55	19.2	19.2	19.2	89	16.5	0	0	---	0.00	29.935 
06:00	19.2	19.2	19.2	89	16.5	0	1	0	0.00	29.935 
06:05	19.1	19.1	19.1	89	16.4	0	0	---	0.00	29.935 
06:10	19.1	19.1	19.1	89	16.4	0	0	---	0.00	29.935 
06:15	18.9	18.9	18.9	89	16.2	0	0	---	0.00	29.935 
06:20	18.8	18.8	18.8	89	16.1	0	0	---	0.00	29.935 
06:25	18.6	18.6	18.6	88	15.6	0	0	---	0.00	29.935 
06:30	18.4	18.4	18.4	88	15.5	0	0	---	0.00	29.935 
06:35	18.1	18.1	18.1	88	15.2	0	0	---	0.00	29.935 
06:40	18.0	18.0	18.0	88	15.1	0	0	---	0.00	29.935 
06:45	17.8	17.8	17.8	88	14.9	0	0	---	0.00	29.941 
06:50	17.7	17.7	17.7	88	14.8	0	0	---	0.00	29.941 
06:55	17.5	17.5	17.5	88	14.6	0	0	---	0.00	29.941 
07:00	17.3	17.3	17.3	88	14.4	0	0	---	0.00	29.946 
07:05	17.3	17.3	17.3	88	14.4	0	0	---	0.00	29.946 
07:10	17.2	17.2	17.2	88	14.3	0	0	---	0.00	29.946 
07:15	17.2	17.2	17.2	88	14.3	0	0	---	0.00	29.951 
07:20	17.2	17.2	17.2	88	14.3	0	0	---	0.00	29.951 
07:25	17.0	17.0	17.0	88	14.1	0	0	---	0.00	29.951 
07:30	16.9	16.9	16.9	88	14.0	0	0	---	0.00	29.952 
07:35	16.9	16.9	16.9	88	14.0	0	0	---	0.00	29.952 
07:40	16.9	16.9	16.9	88	14.0	0	0	---	0.00	29.952 
07:45	16.7	16.7	16.7	88	13.8	0	0	---	0.00	29.955 
07:50	16.7	16.7	16.7	88	13.8	0	0	---	0.00	29.955 
07:55	16.7	16.7	16.7	88	13.8	0	0	---	0.00	29.955 
08:00	17.0	17.0	17.0	89	14.3	0	1	0	0.00	29.957 
08:05	17.3	17.3	17.3	89	14.6	0	1	0	0.00	29.957 
08:10	17.7	17.7	17.7	89	15.0	0	1	0	0.00	29.957 
08:15	18.0	18.0	18.0	89	15.3	0	0	---	0.00	29.964 
08:20	18.1	18.1	18.1	89	15.4	0	0	---	0.00	29.964 
08:25	18.3	18.3	18.3	89	15.6	0	0	---	0.00	29.964 
08:30	18.4	18.4	18.4	89	15.7	0	0	---	0.00	29.965 
08:35	18.6	18.6	18.6	89	15.9	0	0	---	0.00	29.965 
08:40	18.9	18.9	18.9	88	15.9	0	0	---	0.00	29.965 
08:45	19.1	19.1	19.1	89	16.4	0	0	---	0.00	29.965 
08:50	19.5	19.5	19.5	88	16.5	0	0	---	0.00	29.965 
08:55	20.0	20.0	20.0	88	17.0	0	0	---	0.00	29.965 
09:00	20.5	20.5	20.5	88	17.5	0	0	---	0.00	29.966 
09:05	20.8	20.8	20.8	87	17.6	0	0	---	0.00	29.966 
09:10	21.1	21.1	21.1	86	17.6	0	0	---	0.00	29.966 
09:15	21.6	21.6	21.6	85	17.8	0	0	---	0.00	29.964 
09:20	22.1	22.1	22.1	84	18.0	0	1	0	0.00	29.964 
09:25	22.2	22.2	22.2	83	17.8	0	1	0	0.00	29.964 
09:30	22.4	22.4	22.4	83	18.0	0	0	---	0.00	29.965 
09:35	22.5	22.5	22.5	82	17.9	0	1	0	0.00	29.965 
09:40	23.0	23.0	23.0	81	18.1	0	0	---	0.00	29.965 
09:45	24.1	24.1	24.1	81	19.1	0	0	---	0.00	29.962 
09:50	24.5	24.5	24.5	78	18.6	0	1	0	0.00	29.962 
09:55	24.5	24.5	24.5	78	18.6	0	2	0	0.00	29.962 
10:00	24.4	24.4	24.4	77	18.2	0	2	0	0.00	29.963 
10:05	24.7	24.7	24.7	78	18.8	0	1	0	0.00	29.963 
10:10	24.8	24.8	24.8	77	18.6	0	1	0	0.00	29.963 
10:15	25.1	25.1	25.1	76	18.6	0	1	0	0.00	29.963 
10:20	25.6	25.6	25.6	74	18.5	0	1	0	0.00	29.963 
10:25	26.3	26.3	26.3	74	19.2	0	1	0	0.00	29.963 
10:30	26.9	26.9	26.9	73	19.4	0	2	0	0.01	29.961 
10:35	27.2	27.2	27.2	71	19.1	0	2	0	0.00	29.961 
10:40	27.6	27.6	27.6	71	19.4	0	1	0	0.00	29.961 
10:45	28.2	28.2	28.2	71	20.0	0	1	0	0.00	29.961 
10:50	29.1	29.1	29.1	68	19.9	0	1	0	0.01	29.961 
10:55	29.3	29.3	29.3	68	20.1	1	2	0	0.00	29.961 
11:00	28.8	28.8	28.8	68	19.6	1	3	68	0.00	29.958 
11:05	28.8	28.8	28.8	67	19.2	0	2	68	0.00	29.958 
11:10	28.8	28.8	28.8	62	17.4	1	2	68	0.00	29.958 
11:15	29.0	29.0	29.0	63	18.0	0	1	68	0.01	29.965 
11:20	29.0	29.0	29.0	63	18.0	1	2	68	0.00	29.965 
11:25	29.1	29.1	29.1	62	17.7	0	1	68	0.00	29.965 
11:30	29.4	29.4	29.4	64	18.8	1	2	68	0.00	29.965 
11:35	29.5	29.5	29.5	60	17.3	0	2	0	0.00	29.965 
11:40	30.0	30.0	30.0	58	17.0	1	3	225	0.00	29.965 
11:45	30.0	30.0	30.0	60	17.8	2	5	248	0.00	29.966 
11:50	30.0	30.0	30.0	58	17.0	0	3	248	0.00	29.966 
11:55	29.8	29.8	29.8	58	16.8	2	6	248	0.01	29.966 
12:00	30.0	30.0	30.0	58	17.0	2	6	248	0.00	29.968 
12:05	30.1	30.1	30.1	58	17.1	2	5	270	0.00	29.968 
12:10	30.7	30.7	30.7	60	18.5	1	5	270	0.00	29.968 
12:15	30.6	30.6	30.6	57	17.2	3	6	248	0.00	29.966 
12:20	30.7	30.7	30.7	59	18.1	2	4	270	0.00	29.966 
12:25	30.6	30.6	30.6	55	16.4	2	5	248	0.00	29.966 
12:30	30.6	30.6	30.6	57	17.2	2	9	248	0.00	29.964 
12:35	30.9	30.9	30.9	61	19.1	1	4	338	0.00	29.964 
12:40	31.2	31.2	31.2	57	17.8	2	4	248	0.00	29.964 
12:45	31.5	31.5	31.5	57	18.0	1	3	248	0.00	29.959 
12:50	31.8	31.8	31.8	58	18.7	1	3	270	0.00	29.959 
12:55	31.5	31.5	31.5	58	18.4	1	3	248	0.00	29.959 
13:00	30.9	30.9	30.9	56	17.1	2	4	248	0.00	29.958 
13:05	30.7	30.7	30.7	61	18.9	2	4	270	0.00	29.958 
13:10	31.2	31.2	31.2	62	19.7	1	3	338	0.00	29.958 
13:15	31.8	31.8	31.8	56	17.9	1	4	270	0.00	29.949 
13:20	31.9	31.9	31.9	55	17.6	2	6	270	0.00	29.949 
13:25	32.1	32.1	32.1	58	19.0	2	6	248	0.00	29.949 
13:30	31.9	31.9	31.9	58	18.8	3	9	248	0.00	29.947 
13:35	31.8	31.8	31.8	60	19.5	3	10	270	0.00	29.947 
13:40	31.8	31.8	31.8	59	19.1	2	5	248	0.00	29.947 
13:45	32.2	32.2	32.2	58	19.1	2	4	248	0.00	29.945 
13:50	32.2	32.2	32.2	59	19.5	2	6	270	0.00	29.945 
13:55	32.4	32.4	32.4	59	19.7	2	5	270	0.00	29.945 
14:00	32.2	32.2	32.2	58	19.1	1	6	248	0.00	29.941 
14:05	32.1	32.1	32.1	58	19.0	1	5	248	0.00	29.941 
14:10	31.9	31.9	31.9	61	20.0	2	3	248	0.00	29.941 
14:15	31.8	31.8	31.8	59	19.1	1	3	270	0.00	29.942 
14:20	31.6	31.6	31.6	59	18.9	1	4	270	0.00	29.942 
14:25	31.6	31.6	31.6	62	20.1	0	2	338	0.00	29.942 
14:30	31.8	31.8	31.8	61	19.9	1	4	315	0.00	29.938 
14:35	31.8	31.8	31.8	64	21.0	1	4	248	0.00	29.938 
14:40	32.1	32.1	32.1	62	20.6	1	2	292	0.00	29.938 
14:45	32.2	32.2	32.2	60	19.9	2	5	248	0.00	29.933 
14:50	31.8	31.8	31.8	60	19.5	2	4	292	0.00	29.933 
14:55	31.8	31.8	31.8	61	19.9	1	3	315	0.00	29.933 
15:00	31.9	31.9	31.9	62	20.4	1	4	248	0.00	29.929 
15:05	32.1	32.1	32.1	62	20.6	2	5	270	0.00	29.929 
15:10	32.1	32.1	32.1	61	20.2	2	5	270	0.00	29.929 
15:15	31.9	31.9	31.9	61	20.0	1	2	270	0.00	29.933 
15:20	32.1	32.1	32.1	65	21.7	2	6	248	0.00	29.933 
15:25	31.9	31.9	31.9	72	23.9	2	6	248	0.00	29.933 
15:30	31.6	27.6	31.6	71	23.3	4	9	248	0.00	29.934 
15:35	31.8	31.8	31.8	74	24.5	2	5	248	0.00	29.934 
15:40	32.2	32.2	32.2	70	23.5	3	6	248	0.00	29.934 
15:45	32.7	32.7	32.7	67	23.0	3	5	270	0.00	29.935 
15:50	32.9	32.9	32.9	64	22.1	2	4	248	0.00	29.935 
15:55	32.8	32.8	32.8	62	21.2	2	7	270	0.00	29.935 
16:00	32.4	32.4	32.4	62	20.9	3	6	270	0.00	29.937 
16:05	32.4	32.4	32.4	63	21.2	2	6	248	0.00	29.937 
16:10	32.1	32.1	32.1	60	19.8	3	9	248	0.00	29.937 
16:15	31.8	31.8	31.8	61	19.9	2	7	270	0.00	29.945 
16:20	31.3	31.3	31.3	62	19.8	3	7	248	0.00	29.945 
16:25	31.2	31.2	31.2	65	20.8	2	4	270	0.00	29.945 
16:30	31.0	31.0	31.0	67	21.3	2	5	270	0.00	29.946 
16:35	30.7	30.7	30.7	71	22.4	3	6	270	0.00	29.946 
16:40	30.4	30.4	30.4	73	22.8	2	5	270	0.00	29.946 
16:45	30.0	30.0	30.0	80	24.6	3	5	270	0.00	29.954 
16:50	28.8	28.8	28.8	82	24.0	2	4	270	0.00	29.954 
16:55	28.1	28.1	28.1	83	23.6	1	3	270	0.00	29.954 
17:00	27.8	27.8	27.8	85	23.9	2	5	270	0.00	29.961 
17:05	27.8	27.8	27.8	86	24.2	2	5	270	0.00	29.961 
17:10	27.8	27.8	27.8	86	24.2	2	5	292	0.00	29.961 
17:15	27.8	27.8	27.8	86	24.2	2	4	270	0.00	29.966 
17:20	27.8	27.8	27.8	86	24.2	1	4	338	0.00	29.966 
17:25	27.8	27.8	27.8	86	24.2	1	2	292	0.00	29.966 
17:30	27.8	27.8	27.8	86	24.2	1	2	315	0.00	29.967 
17:35	27.8	27.8	27.8	86	24.2	0	1	315	0.00	29.967 
17:40	27.9	27.9	27.9	85	24.0	1	2	248	0.00	29.967 
17:45	27.9	27.9	27.9	85	24.0	1	4	248	0.00	29.968 
17:50	27.9	27.9	27.9	85	24.0	1	4	248	0.00	29.968 
17:55	27.9	27.9	27.9	84	23.7	1	3	248	0.00	29.968 
18:00	27.9	27.9	27.9	83	23.4	2	5	270	0.00	29.970 
18:05	27.9	27.9	27.9	83	23.4	2	5	270	0.00	29.970 
18:10	27.9	27.9	27.9	83	23.4	1	3	270	0.00	29.970 
18:15	27.8	27.8	27.8	82	23.0	1	3	248	0.00	29.977 
18:20	27.8	27.8	27.8	82	23.0	2	5	270	0.00	29.977 
18:25	27.8	27.8	27.8	82	23.0	2	4	270	0.00	29.977 
18:30	27.8	27.8	27.8	82	23.0	1	4	270	0.00	29.983 
18:35	27.8	27.8	27.8	82	23.0	1	3	248	0.00	29.983 
18:40	27.8	27.8	27.8	82	23.0	1	7	270	0.00	29.983 
18:45	27.6	27.6	27.6	82	22.8	1	4	248	0.00	29.987 
18:50	27.6	27.6	27.6	82	22.8	1	3	270	0.00	29.987 
18:55	27.6	27.6	27.6	83	23.1	1	6	270	0.00	29.987 
19:00	27.5	27.5	27.5	83	23.0	2	4	270	0.00	29.992 
19:05	27.3	27.3	27.3	82	22.5	2	5	270	0.00	29.992 
19:10	27.2	27.2	27.2	82	22.4	1	3	292	0.00	29.992 
19:15	27.0	27.0	27.0	82	22.3	1	3	248	0.00	29.994 
19:20	27.0	27.0	27.0	81	22.0	1	3	270	0.00	29.994 
19:25	27.0	27.0	27.0	81	22.0	1	6	270	0.00	29.994 
19:30	27.0	27.0	27.0	80	21.7	1	3	315	0.00	29.998 
19:35	27.0	27.0	27.0	80	21.7	1	3	270	0.00	29.998 
19:40	27.0	27.0	27.0	79	21.4	1	5	292	0.00	29.998 
19:45	27.0	27.0	27.0	78	21.1	1	5	270	0.00	30.000 
19:50	27.0	27.0	27.0	78	21.1	1	3	270	0.00	30.000 
19:55	27.0	27.0	27.0	77	20.8	2	3	292	0.00	30.000 
20:00	27.0	27.0	27.0	77	20.8	1	4	315	0.00	30.002 
20:05	26.9	26.9	26.9	77	20.7	2	4	248	0.00	30.002 
20:10	26.9	26.9	26.9	77	20.7	1	2	248	0.00	30.002 
20:15	26.7	26.7	26.7	77	20.5	1	3	270	0.00	30.000 
20:20	26.7	26.7	26.7	77	20.5	1	4	270	0.00	30.000 
20:25	26.7	26.7	26.7	77	20.5	1	3	270	0.00	30.000 
20:30	26.7	26.7	26.7	77	20.5	1	2	270	0.00	30.001 
20:35	26.7	26.7	26.7	77	20.5	1	3	270	0.00	30.001 
20:40	26.7	26.7	26.7	77	20.5	1	2	270	0.00	30.001 
20:45	26.6	26.6	26.6	77	20.4	1	2	248	0.00	30.001 
20:50	26.6	26.6	26.6	77	20.4	1	2	248	0.00	30.001 
20:55	26.6	26.6	26.6	77	20.4	1	3	248	0.00	30.001 
21:00	26.6	26.6	26.6	77	20.4	1	3	248	0.00	30.001 
21:05	26.6	26.6	26.6	77	20.4	1	3	270	0.00	30.001 
21:10	26.6	26.6	26.6	77	20.4	2	3	248	0.00	30.001 
21:15	26.6	26.6	26.6	77	20.4	1	4	270	0.00	30.007 
21:20	26.6	26.6	26.6	77	20.4	2	4	270	0.00	30.007 
21:25	26.7	26.7	26.7	77	20.5	2	6	270	0.00	30.007 
21:30	26.7	26.7	26.7	77	20.5	2	5	270	0.00	30.009 
21:35	26.7	26.7	26.7	77	20.5	2	4	270	0.00	30.009 
21:40	26.7	26.7	26.7	78	20.8	2	4	270	0.00	30.009 
21:45	26.6	26.6	26.6	78	20.7	1	3	248	0.00	30.012 
21:50	26.6	26.6	26.6	79	21.0	1	2	270	0.00	30.012 
21:55	26.6	26.6	26.6	79	21.0	1	2	270	0.00	30.012 
22:00	26.6	26.6	26.6	79	21.0	1	3	292	0.00	30.011 
22:05	26.4	26.4	26.4	79	20.8	1	2	248	0.00	30.011 
22:10	26.4	26.4	26.4	79	20.8	1	3	248	0.00	30.011 
22:15	26.4	26.4	26.4	80	21.1	1	3	248	0.00	30.006 
22:20	26.4	26.4	26.4	80	21.1	2	6	270	0.00	30.006 
22:25	26.4	26.4	26.4	81	21.4	1	3	270	0.00	30.006 
22:30	26.4	26.4	26.4	81	21.4	1	2	248	0.00	30.006 
22:35	26.3	26.3	26.3	81	21.3	1	2	248	0.00	30.006 
22:40	26.3	26.3	26.3	81	21.3	1	3	248	0.00	30.006 
22:45	26.3	26.3	26.3	81	21.3	1	3	248	0.00	30.006 
22:50	26.3	26.3	26.3	81	21.3	1	3	248	0.00	30.006 
22:55	26.1	26.1	26.1	81	21.1	1	3	248	0.00	30.006 
23:00	26.1	26.1	26.1	81	21.1	1	4	248	0.00	30.006 
23:05	26.0	26.0	26.0	81	21.0	1	4	270	0.00	30.006 
23:10	25.8	25.8	25.8	81	20.8	1	4	270	0.00	30.006 
23:15	25.7	25.7	25.7	81	20.7	1	5	270	0.00	30.002 
23:20	25.4	25.4	25.4	81	20.4	2	3	270	0.00	30.002 
23:25	25.3	25.3	25.3	82	20.6	1	4	270	0.00	30.002 
23:30	25.1	25.1	25.1	82	20.4	2	4	248	0.00	30.004 
23:35	25.0	25.0	25.0	83	20.6	1	4	270	0.00	30.004 
23:40	25.0	25.0	25.0	83	20.6	1	3	270	0.00	30.004 
23:45	24.8	24.8	24.8	83	20.4	1	5	248	0.00	30.000 
23:50	24.7	24.7	24.7	84	20.6	2	4	248	0.00	30.000 
23:55	24.5	24.5	24.5	84	20.4	1	3	248	0.00	30.000 

CoCoRaHS
IN-AL-39
A2 Web Hosting
Creative Commons License
GoDaddy
Look for:

loaded 2017-10-19 12:03:57 • last modified 2010-11-18 10:43:29
Privacy PolicyDisclaimer
• wx.awcolley.com is powered by PmWiki v.2002016 •
• all content (unless otherwise noted) © 2017 A W Colley